createdAt,value
2022-10-19T00:01:14.930Z,12.39
2022-10-19T00:03:42.289Z,12.35
2022-10-19T00:06:19.741Z,12.34
2022-10-19T00:08:46.215Z,12.33
2022-10-19T00:11:12.981Z,12.30
2022-10-19T00:13:39.893Z,12.26
2022-10-19T00:16:12.780Z,12.25
2022-10-19T00:18:40.540Z,12.22
2022-10-19T00:21:09.470Z,12.18
2022-10-19T00:23:37.144Z,12.16
2022-10-19T00:26:03.588Z,12.14
2022-10-19T00:28:30.345Z,12.12
2022-10-19T00:30:56.867Z,12.14
2022-10-19T00:33:23.532Z,12.10
2022-10-19T00:35:51.776Z,12.04
2022-10-19T00:38:20.602Z,12.01
2022-10-19T00:40:47.830Z,12.02
2022-10-19T00:43:20.749Z,11.97
2022-10-19T00:45:47.223Z,11.89
2022-10-19T00:48:19.421Z,11.87
2022-10-19T00:50:48.441Z,11.86
2022-10-19T00:53:15.333Z,11.81
2022-10-19T00:55:42.469Z,11.78
2022-10-19T00:58:09.876Z,11.81
2022-10-19T01:00:36.683Z,11.75
2022-10-19T01:03:03.887Z,11.72
2022-10-19T01:05:32.525Z,11.65
2022-10-19T01:07:59.034Z,11.63
2022-10-19T01:10:40.281Z,11.63
2022-10-19T01:13:09.738Z,11.56
2022-10-19T01:15:55.567Z,11.53
2022-10-19T01:18:42.590Z,11.52
2022-10-19T01:21:26.190Z,11.50
2022-10-19T01:24:05.445Z,11.50
2022-10-19T01:27:05.232Z,11.47
2022-10-19T01:29:57.080Z,11.46
2022-10-19T01:32:41.831Z,11.43
2022-10-19T01:35:11.733Z,11.43
2022-10-19T01:37:48.287Z,11.45
2022-10-19T01:40:26.831Z,11.46
2022-10-19T01:43:21.894Z,11.45
2022-10-19T01:46:07.023Z,11.43
2022-10-19T01:48:37.770Z,11.44
2022-10-19T01:51:19.498Z,11.44
2022-10-19T01:53:53.330Z,11.44
2022-10-19T01:56:24.650Z,11.42
2022-10-19T01:58:52.734Z,11.35
2022-10-19T02:01:23.032Z,11.35
2022-10-19T02:03:51.677Z,11.32
2022-10-19T02:06:18.731Z,11.30
2022-10-19T02:08:48.886Z,11.28
2022-10-19T02:11:17.084Z,11.27
2022-10-19T02:13:46.100Z,11.19
2022-10-19T02:16:18.003Z,11.16
2022-10-19T02:18:50.966Z,11.15
2022-10-19T02:21:18.303Z,11.14
2022-10-19T02:23:46.732Z,11.11
2022-10-19T02:26:14.036Z,11.11
2022-10-19T02:28:40.689Z,11.10
2022-10-19T02:31:07.357Z,11.10
2022-10-19T02:33:33.945Z,11.09
2022-10-19T02:36:00.928Z,11.09
2022-10-19T02:38:28.053Z,11.07
2022-10-19T02:41:04.219Z,11.04
2022-10-19T02:43:34.946Z,11.01
2022-10-19T02:46:08.084Z,11.01
2022-10-19T02:48:37.922Z,11.01
2022-10-19T02:51:04.478Z,11.01
2022-10-19T02:53:30.932Z,11.01
2022-10-19T02:55:57.524Z,10.97
2022-10-19T02:58:23.928Z,10.94
2022-10-19T03:00:50.397Z,10.94
2022-10-19T03:03:16.865Z,10.94
2022-10-19T03:05:43.297Z,10.92
2022-10-19T03:08:09.709Z,10.95
2022-10-19T03:10:36.212Z,10.94
2022-10-19T03:13:02.678Z,10.89
2022-10-19T03:15:29.983Z,10.89
2022-10-19T03:17:56.733Z,10.97
2022-10-19T03:20:23.479Z,10.93
2022-10-19T03:22:50.302Z,10.87
2022-10-19T03:25:16.831Z,10.80
2022-10-19T03:27:43.226Z,10.79
2022-10-19T03:30:10.058Z,10.73
2022-10-19T03:32:36.461Z,10.74
2022-10-19T03:35:02.894Z,10.74
2022-10-19T03:37:29.301Z,10.72
2022-10-19T03:39:55.691Z,10.71
2022-10-19T03:42:22.086Z,10.73
2022-10-19T03:44:48.542Z,10.73
2022-10-19T03:47:14.982Z,10.73
2022-10-19T03:49:43.467Z,10.72
2022-10-19T03:52:10.191Z,10.68
2022-10-19T03:54:36.795Z,10.68
2022-10-19T03:57:03.307Z,10.67
2022-10-19T03:59:29.738Z,10.72
2022-10-19T04:01:56.214Z,10.71
2022-10-19T04:04:22.661Z,10.72
2022-10-19T04:06:50.099Z,10.72
2022-10-19T04:09:19.203Z,10.72
2022-10-19T04:11:46.085Z,10.75
2022-10-19T04:14:26.863Z,10.73
2022-10-19T04:16:59.905Z,10.79
2022-10-19T04:19:26.340Z,10.80
2022-10-19T04:21:52.838Z,10.81
2022-10-19T04:24:19.387Z,10.81
2022-10-19T04:26:48.406Z,10.82
2022-10-19T04:29:16.241Z,10.85
2022-10-19T04:31:43.065Z,10.84
2022-10-19T04:34:09.538Z,10.83
2022-10-19T04:36:36.250Z,10.78
2022-10-19T04:39:03.794Z,10.79
2022-10-19T04:41:30.971Z,10.76
2022-10-19T04:44:03.083Z,10.74
2022-10-19T04:46:30.245Z,10.71
2022-10-19T04:48:57.534Z,10.74
2022-10-19T04:51:25.255Z,10.78
2022-10-19T04:53:53.405Z,10.76
2022-10-19T04:56:26.368Z,10.78
2022-10-19T04:58:56.237Z,10.77
2022-10-19T05:01:23.413Z,10.78
2022-10-19T05:03:54.129Z,10.81
2022-10-19T05:06:20.668Z,10.82
2022-10-19T05:08:48.303Z,10.79
2022-10-19T05:11:15.365Z,10.75
2022-10-19T05:13:42.692Z,10.78
2022-10-19T05:16:13.316Z,10.72
2022-10-19T05:18:40.250Z,10.64
2022-10-19T05:21:13.077Z,10.57
2022-10-19T05:23:40.525Z,10.56
2022-10-19T05:26:12.545Z,10.55
2022-10-19T05:28:39.523Z,10.54
2022-10-19T05:31:12.165Z,10.60
2022-10-19T05:33:39.605Z,10.57
2022-10-19T05:36:26.233Z,10.63
2022-10-19T05:38:54.635Z,10.64
2022-10-19T05:41:22.240Z,10.61
2022-10-19T05:43:53.642Z,10.64
2022-10-19T05:46:20.099Z,10.61
2022-10-19T05:48:47.221Z,10.59
2022-10-19T05:51:16.579Z,10.55
2022-10-19T05:53:43.401Z,10.59
2022-10-19T05:56:14.605Z,10.61
2022-10-19T05:58:41.431Z,10.62
2022-10-19T06:01:09.378Z,10.59
2022-10-19T06:03:36.327Z,10.60
2022-10-19T06:06:04.799Z,10.61
2022-10-19T06:08:31.196Z,10.56
2022-10-19T06:11:16.028Z,10.55
2022-10-19T06:13:44.340Z,10.53
2022-10-19T06:16:13.720Z,10.53
2022-10-19T06:18:40.405Z,10.55
2022-10-19T06:21:10.193Z,10.54
2022-10-19T06:23:37.513Z,10.53
2022-10-19T06:26:07.267Z,10.56
2022-10-19T06:28:34.815Z,10.56
2022-10-19T06:31:01.818Z,10.57
2022-10-19T06:33:30.179Z,10.57
2022-10-19T06:35:56.678Z,10.61
2022-10-19T06:38:23.214Z,10.67
2022-10-19T06:40:49.681Z,10.74
2022-10-19T06:43:16.157Z,10.73
2022-10-19T06:45:42.603Z,10.71
2022-10-19T06:48:09.060Z,10.60
2022-10-19T06:50:35.572Z,10.66
2022-10-19T06:53:02.033Z,10.67
2022-10-19T06:55:28.566Z,10.72
2022-10-19T06:57:55.013Z,10.67
2022-10-19T07:00:21.489Z,10.63
2022-10-19T07:02:47.908Z,10.55
2022-10-19T07:05:14.443Z,10.47
2022-10-19T07:07:40.897Z,10.42
2022-10-19T07:10:07.581Z,10.35
2022-10-19T07:12:34.041Z,10.45
2022-10-19T07:15:00.491Z,10.42
2022-10-19T07:17:26.976Z,10.42
2022-10-19T07:19:53.504Z,10.37
2022-10-19T07:22:24.435Z,10.42
2022-10-19T07:24:54.653Z,10.42
2022-10-19T07:27:21.125Z,10.45
2022-10-19T07:29:47.539Z,10.46
2022-10-19T07:32:13.972Z,10.47
2022-10-19T07:34:40.503Z,10.49
2022-10-19T07:37:07.084Z,10.55
2022-10-19T07:39:33.535Z,10.67
2022-10-19T07:41:59.987Z,10.67
2022-10-19T07:44:26.871Z,10.71
2022-10-19T07:46:58.008Z,10.72
2022-10-19T07:49:24.529Z,10.70
2022-10-19T07:51:54.108Z,10.77
2022-10-19T07:54:21.411Z,10.77
2022-10-19T07:56:47.893Z,10.71
2022-10-19T07:59:16.206Z,10.63
2022-10-19T08:01:44.087Z,10.68
2022-10-19T08:06:57.003Z,10.80
2022-10-19T08:09:50.877Z,10.88
2022-10-19T08:12:13.979Z,10.98
2022-10-19T08:14:41.771Z,10.97
2022-10-19T08:17:11.702Z,11.08
2022-10-19T08:19:43.576Z,11.12
2022-10-19T08:22:11.506Z,11.23
2022-10-19T08:24:38.111Z,11.29
2022-10-19T08:27:05.158Z,11.37
2022-10-19T08:29:32.073Z,11.49
2022-10-19T08:31:59.374Z,11.71
2022-10-19T08:34:26.248Z,11.95
2022-10-19T08:36:52.707Z,12.00
2022-10-19T08:39:19.266Z,12.13
2022-10-19T08:42:00.970Z,12.28
2022-10-19T08:44:33.444Z,12.39
2022-10-19T08:47:22.338Z,12.42
2022-10-19T08:49:50.018Z,12.53
2022-10-19T08:52:21.395Z,12.70
2022-10-19T08:55:15.066Z,12.75
2022-10-19T08:58:00.155Z,12.81
2022-10-19T09:00:43.358Z,12.86
2022-10-19T09:03:55.569Z,12.96
2022-10-19T09:06:37.168Z,13.06
2022-10-19T09:09:05.782Z,13.03
2022-10-19T09:11:41.938Z,13.07
2022-10-19T09:14:22.710Z,13.10
2022-10-19T09:16:49.246Z,13.25
2022-10-19T09:19:29.172Z,13.32
2022-10-19T09:22:06.272Z,13.39
2022-10-19T09:24:43.893Z,13.50
2022-10-19T09:27:39.044Z,13.53
2022-10-19T09:30:27.060Z,13.56
2022-10-19T09:33:01.122Z,13.71
2022-10-19T09:35:34.132Z,13.96
2022-10-19T09:38:00.785Z,14.08
2022-10-19T09:40:30.167Z,14.18
2022-10-19T09:42:58.754Z,14.39
2022-10-19T09:45:47.705Z,14.49
2022-10-19T09:48:41.681Z,14.76
2022-10-19T09:51:12.290Z,14.90
2022-10-19T09:53:44.449Z,15.07
2022-10-19T09:56:18.930Z,15.05
2022-10-19T09:58:55.292Z,15.20
2022-10-19T10:01:40.151Z,15.15
2022-10-19T10:04:18.440Z,15.25
2022-10-19T10:06:47.972Z,15.28
2022-10-19T10:09:17.347Z,15.15
2022-10-19T10:11:47.983Z,15.13
2022-10-19T10:14:23.259Z,15.08
2022-10-19T10:16:55.918Z,15.03
2022-10-19T10:19:27.404Z,15.16
2022-10-19T10:21:55.761Z,14.86
2022-10-19T10:24:24.553Z,14.96
2022-10-19T10:26:57.811Z,14.86
2022-10-19T10:29:34.308Z,14.98
2022-10-19T10:32:00.684Z,14.87
2022-10-19T10:34:49.450Z,14.86
2022-10-19T10:37:28.352Z,14.83
2022-10-19T10:39:59.138Z,14.80
2022-10-19T10:42:44.680Z,14.87
2022-10-19T10:45:33.508Z,14.79
2022-10-19T10:48:16.068Z,14.82
2022-10-19T10:50:43.754Z,14.74
2022-10-19T10:53:32.065Z,14.80
2022-10-19T10:55:58.612Z,14.81
2022-10-19T10:58:54.900Z,14.90
2022-10-19T11:01:29.072Z,14.85
2022-10-19T11:04:11.060Z,14.87
2022-10-19T11:06:54.002Z,14.94
2022-10-19T11:09:34.461Z,14.91
2022-10-19T11:12:08.990Z,14.98
2022-10-19T11:14:49.327Z,15.01
2022-10-19T11:17:23.724Z,15.13
2022-10-19T11:19:51.380Z,15.26
2022-10-19T11:22:27.179Z,15.30
2022-10-19T11:25:18.571Z,15.42
2022-10-19T11:27:57.239Z,15.48
2022-10-19T11:30:25.082Z,15.62
2022-10-19T11:33:03.744Z,15.61
2022-10-19T11:35:58.039Z,15.48
2022-10-19T11:39:03.577Z,15.57
2022-10-19T11:41:38.865Z,15.75
2022-10-19T11:44:28.148Z,15.72
2022-10-19T11:47:13.427Z,15.58
2022-10-19T11:49:51.880Z,15.66
2022-10-19T11:52:37.217Z,15.82
2022-10-19T11:55:27.147Z,15.99
2022-10-19T11:58:39.436Z,16.02
2022-10-19T12:01:42.080Z,16.05
2022-10-19T12:04:14.715Z,16.10
2022-10-19T12:06:46.025Z,16.13
2022-10-19T12:09:30.820Z,16.22
2022-10-19T12:12:23.013Z,16.33
2022-10-19T12:14:56.946Z,16.40
2022-10-19T12:17:33.468Z,16.54
2022-10-19T12:20:06.439Z,16.59
2022-10-19T12:22:35.138Z,16.71
2022-10-19T12:25:01.961Z,16.75
2022-10-19T12:27:37.398Z,16.83
2022-10-19T12:30:18.748Z,16.92
2022-10-19T12:33:09.126Z,16.91
2022-10-19T12:35:54.294Z,16.92
2022-10-19T12:38:29.176Z,16.95
2022-10-19T12:41:19.771Z,17.17
2022-10-19T12:44:09.150Z,17.04
2022-10-19T12:46:42.980Z,17.04
2022-10-19T12:49:31.258Z,17.11
2022-10-19T12:52:01.713Z,17.21
2022-10-19T12:54:31.149Z,17.27
2022-10-19T12:57:00.460Z,17.25
2022-10-19T12:59:35.860Z,17.05
2022-10-19T13:02:05.773Z,17.10
2022-10-19T13:04:35.847Z,17.01
2022-10-19T13:07:10.561Z,16.98
2022-10-19T13:09:45.810Z,16.91
2022-10-19T13:12:21.544Z,16.50
2022-10-19T13:14:51.419Z,16.47
2022-10-19T13:17:49.136Z,16.46
2022-10-19T13:20:15.656Z,16.19
2022-10-19T13:22:46.108Z,16.06
2022-10-19T13:25:23.717Z,16.07
2022-10-19T13:27:52.709Z,16.04
2022-10-19T13:30:38.468Z,15.95
2022-10-19T13:33:28.410Z,15.74
2022-10-19T13:36:01.000Z,15.72
2022-10-19T13:38:30.971Z,15.77
2022-10-19T13:41:06.814Z,15.79
2022-10-19T13:43:39.521Z,15.79
2022-10-19T13:46:08.842Z,15.81
2022-10-19T13:48:44.287Z,15.82
2022-10-19T13:51:40.126Z,15.90
2022-10-19T13:54:20.477Z,15.84
2022-10-19T13:57:11.916Z,15.82
2022-10-19T14:00:10.343Z,15.87
2022-10-19T14:02:58.149Z,15.91
2022-10-19T14:06:05.013Z,15.89
2022-10-19T14:09:10.553Z,15.97
2022-10-19T14:11:41.283Z,15.95
2022-10-19T14:14:10.512Z,15.86
2022-10-19T14:17:03.070Z,15.84
2022-10-19T14:19:47.208Z,15.81
2022-10-19T14:22:21.721Z,15.78
2022-10-19T14:24:48.197Z,15.79
2022-10-19T14:27:23.061Z,15.77
2022-10-19T14:29:53.545Z,15.84
2022-10-19T14:32:26.110Z,15.79
2022-10-19T14:34:53.830Z,15.80
2022-10-19T14:37:26.817Z,15.83
2022-10-19T14:40:03.904Z,15.80
2022-10-19T14:42:57.714Z,15.77
2022-10-19T14:45:29.917Z,15.84
2022-10-19T14:47:56.331Z,15.82
2022-10-19T14:50:45.073Z,15.83
2022-10-19T14:53:32.903Z,15.80
2022-10-19T14:56:06.057Z,15.81
2022-10-19T14:58:39.810Z,15.81
2022-10-19T15:01:07.070Z,15.77
2022-10-19T15:03:33.891Z,15.76
2022-10-19T15:06:04.849Z,15.75
2022-10-19T15:08:34.858Z,15.62
2022-10-19T15:11:01.459Z,15.67
2022-10-19T15:13:33.529Z,15.65
2022-10-19T15:16:00.215Z,15.67
2022-10-19T15:18:48.308Z,15.57
2022-10-19T15:21:21.054Z,15.42
2022-10-19T15:23:52.347Z,15.30
2022-10-19T15:26:24.783Z,15.29
2022-10-19T15:28:52.060Z,15.14
2022-10-19T15:31:39.111Z,15.14
2022-10-19T15:34:05.930Z,15.09
2022-10-19T15:36:32.808Z,15.02
2022-10-19T15:39:18.088Z,14.96
2022-10-19T15:41:50.099Z,14.85
2022-10-19T15:44:33.877Z,14.81
2022-10-19T15:47:15.373Z,14.75
2022-10-19T15:49:41.740Z,14.68
2022-10-19T15:52:18.915Z,14.59
2022-10-19T15:54:52.702Z,14.43
2022-10-19T15:57:28.002Z,14.31
2022-10-19T15:59:56.959Z,14.26
2022-10-19T16:02:25.146Z,14.19
2022-10-19T16:04:55.343Z,14.05
2022-10-19T16:07:29.282Z,13.95
2022-10-19T16:09:56.431Z,13.83
2022-10-19T16:12:24.278Z,13.76
2022-10-19T16:14:50.850Z,13.62
2022-10-19T16:17:17.529Z,13.60
2022-10-19T16:19:44.904Z,13.48
2022-10-19T16:22:12.902Z,13.29
2022-10-19T16:24:39.518Z,13.21
2022-10-19T16:27:07.011Z,13.04
2022-10-19T16:29:34.721Z,12.97
2022-10-19T16:32:01.440Z,12.87
2022-10-19T16:34:28.028Z,12.76
2022-10-19T16:36:54.583Z,12.69
2022-10-19T16:39:21.118Z,12.63
2022-10-19T16:41:47.682Z,12.50
2022-10-19T16:44:14.215Z,12.46
2022-10-19T16:46:40.706Z,12.33
2022-10-19T16:49:07.159Z,12.20
2022-10-19T16:51:39.560Z,12.14
2022-10-19T16:54:08.339Z,12.06
2022-10-19T16:56:35.762Z,12.02
2022-10-19T16:59:05.310Z,11.98
2022-10-19T17:01:33.161Z,11.94
2022-10-19T17:04:00.381Z,11.86
2022-10-19T17:06:28.008Z,11.84
2022-10-19T17:11:44.700Z,11.61
2022-10-19T17:14:12.834Z,11.58
2022-10-19T17:16:40.140Z,11.49
2022-10-19T17:19:08.190Z,11.40
2022-10-19T17:21:38.502Z,11.36
2022-10-19T17:24:13.845Z,11.32
2022-10-19T17:26:45.100Z,11.24
2022-10-19T17:29:14.074Z,11.13
2022-10-19T17:31:41.697Z,11.09
2022-10-19T17:34:09.318Z,11.00
2022-10-19T17:39:09.129Z,11.00
2022-10-19T17:41:35.816Z,10.97
2022-10-19T17:44:04.201Z,10.99
2022-10-19T17:46:32.540Z,10.94
2022-10-19T17:49:00.600Z,10.86
2022-10-19T17:51:29.627Z,10.84
2022-10-19T17:54:00.182Z,10.75
2022-10-19T17:56:27.607Z,10.77
2022-10-19T17:58:54.423Z,10.73
2022-10-19T18:01:22.572Z,10.67
2022-10-19T18:03:50.126Z,10.65
2022-10-19T18:06:19.452Z,10.66
2022-10-19T18:08:48.675Z,10.55
2022-10-19T18:11:18.297Z,10.50
2022-10-19T18:13:45.260Z,10.38
2022-10-19T18:16:15.502Z,10.36
2022-10-19T18:18:45.908Z,10.35
2022-10-19T18:21:15.406Z,10.28
2022-10-19T18:23:42.056Z,10.29
2022-10-19T18:26:14.969Z,10.24
2022-10-19T18:28:42.394Z,10.23
2022-10-19T18:31:29.151Z,10.20
2022-10-19T18:33:56.809Z,10.14
2022-10-19T18:36:23.293Z,10.11
2022-10-19T18:38:51.854Z,10.07
2022-10-19T18:41:18.404Z,10.05
2022-10-19T18:43:49.590Z,9.97
2022-10-19T18:46:19.140Z,9.95
2022-10-19T18:48:45.661Z,9.94
2022-10-19T18:51:13.103Z,9.85
2022-10-19T18:54:06.436Z,9.77
2022-10-19T18:59:14.936Z,9.77
2022-10-19T19:01:41.602Z,9.70
2022-10-19T19:04:09.508Z,9.61
2022-10-19T19:06:37.260Z,9.57
2022-10-19T19:09:07.047Z,9.51
2022-10-19T19:11:36.913Z,9.49
2022-10-19T19:14:12.317Z,9.44
2022-10-19T19:16:39.740Z,9.41
2022-10-19T19:19:07.412Z,9.33
2022-10-19T19:21:36.512Z,9.26
2022-10-19T19:24:05.512Z,9.23
2022-10-19T19:26:34.892Z,9.20
2022-10-19T19:29:01.493Z,9.18
2022-10-19T19:31:28.109Z,9.14
2022-10-19T19:33:54.589Z,9.07
2022-10-19T19:36:21.143Z,9.05
2022-10-19T19:38:50.487Z,9.00
2022-10-19T19:41:17.505Z,8.97
2022-10-19T19:43:44.336Z,8.95
2022-10-19T19:46:13.817Z,8.85
2022-10-19T19:48:42.513Z,8.81
2022-10-19T19:51:11.452Z,8.77
2022-10-19T19:53:40.094Z,8.72
2022-10-19T19:56:08.209Z,8.67
2022-10-19T19:58:34.738Z,8.57
2022-10-19T20:01:12.446Z,8.58
2022-10-19T20:03:40.011Z,8.55
2022-10-19T20:06:06.787Z,8.60
2022-10-19T20:08:33.748Z,8.67
2022-10-19T20:11:06.154Z,8.76
2022-10-19T20:13:33.050Z,8.83
2022-10-19T20:16:02.513Z,8.93
2022-10-19T20:18:29.613Z,9.15
2022-10-19T20:21:01.478Z,9.21
2022-10-19T20:23:29.164Z,9.30
2022-10-19T20:25:56.358Z,9.38
2022-10-19T20:28:25.082Z,9.45
2022-10-19T20:31:05.266Z,9.46
2022-10-19T20:33:33.888Z,9.45
2022-10-19T20:36:09.329Z,9.41
2022-10-19T20:38:38.624Z,9.36
2022-10-19T20:41:09.625Z,9.32
2022-10-19T20:43:37.479Z,9.35
2022-10-19T20:46:13.237Z,9.31
2022-10-19T20:48:40.358Z,9.31
2022-10-19T20:51:30.892Z,9.35
2022-10-19T20:54:00.227Z,9.33
2022-10-19T20:56:31.780Z,9.38
2022-10-19T21:01:34.813Z,9.38
2022-10-19T21:04:03.318Z,9.48
2022-10-19T21:06:31.658Z,9.44
2022-10-19T21:08:59.206Z,9.35
2022-10-19T21:11:31.303Z,9.34
2022-10-19T21:14:00.224Z,9.32
2022-10-19T21:16:28.362Z,9.29
2022-10-19T21:18:55.090Z,9.33
2022-10-19T21:21:23.839Z,9.33
2022-10-19T21:23:54.001Z,9.28
2022-10-19T21:26:20.537Z,9.24
2022-10-19T21:28:48.734Z,9.25
2022-10-19T21:31:16.483Z,9.21
2022-10-19T21:33:43.743Z,9.21
2022-10-19T21:36:12.353Z,9.26
2022-10-19T21:38:38.769Z,9.27
2022-10-19T21:41:13.996Z,9.23
2022-10-19T21:43:40.445Z,9.23
2022-10-19T21:46:10.674Z,9.17
2022-10-19T21:48:37.205Z,9.12
2022-10-19T21:51:17.116Z,9.19
2022-10-19T21:53:44.245Z,9.20
2022-10-19T21:56:10.698Z,9.17
2022-10-19T21:58:37.141Z,9.10
2022-10-19T22:01:05.297Z,9.13
2022-10-19T22:03:31.810Z,9.08
2022-10-19T22:05:58.537Z,9.10
2022-10-19T22:08:25.232Z,9.08
2022-10-19T22:10:51.761Z,9.05
2022-10-19T22:13:18.507Z,9.05
2022-10-19T22:15:45.113Z,9.05
2022-10-19T22:18:11.664Z,9.01
2022-10-19T22:20:39.518Z,8.98
2022-10-19T22:23:07.723Z,8.93
2022-10-19T22:25:35.337Z,8.92
2022-10-19T22:28:02.123Z,8.87
2022-10-19T22:30:28.560Z,8.84
2022-10-19T22:32:55.803Z,8.80
2022-10-19T22:35:22.485Z,8.75
2022-10-19T22:37:48.924Z,8.67
2022-10-19T22:40:15.414Z,8.58
2022-10-19T22:42:41.867Z,8.50
2022-10-19T22:45:08.504Z,8.35
2022-10-19T22:47:34.937Z,8.32
2022-10-19T22:50:01.380Z,8.17
2022-10-19T22:52:27.851Z,8.10
2022-10-19T22:54:54.323Z,7.97
2022-10-19T22:57:20.737Z,7.84
2022-10-19T22:59:47.215Z,7.78
2022-10-19T23:02:13.624Z,7.64
2022-10-19T23:04:40.053Z,7.49
2022-10-19T23:07:06.490Z,7.45
2022-10-19T23:09:32.925Z,7.47
2022-10-19T23:11:59.313Z,7.40
2022-10-19T23:14:25.776Z,7.36
2022-10-19T23:16:52.253Z,7.28
2022-10-19T23:19:18.900Z,7.26
2022-10-19T23:21:45.388Z,7.24
2022-10-19T23:24:11.821Z,7.24
2022-10-19T23:26:38.254Z,7.21
2022-10-19T23:29:04.677Z,7.12
2022-10-19T23:31:32.752Z,7.11
2022-10-19T23:33:59.166Z,7.06
2022-10-19T23:36:28.554Z,7.00
2022-10-19T23:38:56.129Z,6.98
2022-10-19T23:41:22.772Z,6.92
2022-10-19T23:43:49.688Z,6.89
2022-10-19T23:46:16.186Z,6.85
2022-10-19T23:48:43.066Z,6.80
2022-10-19T23:51:12.378Z,6.77
2022-10-19T23:53:41.319Z,6.71
2022-10-19T23:56:19.561Z,6.64
2022-10-19T23:58:46.813Z,6.62
